createdAt,value
2023-03-06T00:02:12.923Z,18.33
2023-03-06T00:04:39.936Z,18.40
2023-03-06T00:07:06.248Z,15.50
2023-03-06T00:09:32.496Z,16.33
2023-03-06T00:11:58.809Z,19.17
2023-03-06T00:14:25.095Z,18.77
2023-03-06T00:16:54.542Z,19.80
2023-03-06T00:19:20.809Z,19.03
2023-03-06T00:21:47.069Z,16.53
2023-03-06T00:24:13.341Z,18.53
2023-03-06T00:26:41.177Z,17.77
2023-03-06T00:29:08.675Z,21.40
2023-03-06T00:31:35.890Z,19.53
2023-03-06T00:34:02.733Z,16.50
2023-03-06T00:36:28.972Z,19.50
2023-03-06T00:38:55.222Z,16.53
2023-03-06T00:41:21.528Z,21.63
2023-03-06T00:43:47.828Z,15.53
2023-03-06T00:46:14.299Z,16.90
2023-03-06T00:48:40.554Z,17.47
2023-03-06T00:51:07.177Z,18.80
2023-03-06T00:53:33.464Z,18.57
2023-03-06T00:55:59.762Z,18.40
2023-03-06T00:58:25.998Z,16.73
2023-03-06T01:00:53.123Z,18.77
2023-03-06T01:03:19.398Z,15.83
2023-03-06T01:05:45.671Z,18.43
2023-03-06T01:08:11.976Z,18.47
2023-03-06T01:10:38.744Z,19.40
2023-03-06T01:13:05.073Z,20.87
2023-03-06T01:15:31.345Z,18.57
2023-03-06T01:17:57.622Z,17.63
2023-03-06T01:20:23.951Z,18.93
2023-03-06T01:22:50.301Z,19.00
2023-03-06T01:25:16.604Z,19.03
2023-03-06T01:27:42.900Z,15.67
2023-03-06T01:30:09.448Z,19.50
2023-03-06T01:32:35.755Z,17.80
2023-03-06T01:35:03.863Z,16.93
2023-03-06T01:37:30.308Z,16.30
2023-03-06T01:39:56.580Z,19.20
2023-03-06T01:42:22.846Z,17.40
2023-03-06T01:44:59.087Z,18.80
2023-03-06T01:47:25.389Z,17.60
2023-03-06T01:49:53.325Z,18.80
2023-03-06T01:52:22.032Z,16.00
2023-03-06T01:54:50.525Z,19.37
2023-03-06T01:57:19.578Z,15.17
2023-03-06T01:59:47.834Z,17.07
2023-03-06T02:02:15.157Z,17.30
2023-03-06T02:04:42.966Z,17.67
2023-03-06T02:07:09.870Z,17.83
2023-03-06T02:09:37.220Z,19.50
2023-03-06T02:12:07.762Z,16.27
2023-03-06T02:14:34.135Z,16.97
2023-03-06T02:17:00.434Z,14.90
2023-03-06T02:19:26.708Z,17.70
2023-03-06T02:21:53.042Z,16.63
2023-03-06T02:24:19.916Z,21.00
2023-03-06T02:26:46.796Z,18.90
2023-03-06T02:29:14.486Z,17.30
2023-03-06T02:31:40.774Z,15.13
2023-03-06T02:34:26.994Z,17.13
2023-03-06T02:36:55.597Z,18.67
2023-03-06T02:39:23.239Z,21.70
2023-03-06T02:41:49.609Z,21.17
2023-03-06T02:44:15.917Z,21.50
2023-03-06T02:46:42.258Z,22.67
2023-03-06T02:49:08.493Z,19.80
2023-03-06T02:51:34.815Z,22.77
2023-03-06T02:54:01.111Z,20.37
2023-03-06T02:56:27.368Z,19.10
2023-03-06T02:58:53.862Z,20.00
2023-03-06T03:01:20.466Z,19.97
2023-03-06T03:03:46.723Z,20.10
2023-03-06T03:06:13.214Z,21.20
2023-03-06T03:08:39.563Z,19.87
2023-03-06T03:11:06.140Z,21.80
2023-03-06T03:13:32.428Z,21.80
2023-03-06T03:16:03.035Z,22.53
2023-03-06T03:18:29.620Z,21.47
2023-03-06T03:20:56.020Z,20.13
2023-03-06T03:23:22.755Z,20.33
2023-03-06T03:25:49.047Z,21.77
2023-03-06T03:28:15.587Z,48.93
2023-03-06T03:30:42.388Z,25.70
2023-03-06T03:33:09.132Z,23.03
2023-03-06T03:35:35.685Z,24.03
2023-03-06T03:38:02.110Z,22.90
2023-03-06T03:40:28.595Z,27.87
2023-03-06T03:42:54.878Z,26.67
2023-03-06T03:45:21.165Z,23.53
2023-03-06T03:47:47.401Z,26.13
2023-03-06T03:50:13.851Z,26.67
2023-03-06T03:52:40.126Z,25.67
2023-03-06T03:55:06.680Z,26.60
2023-03-06T03:57:33.032Z,24.63
2023-03-06T03:59:59.475Z,44.30
2023-03-06T04:02:25.738Z,28.03
2023-03-06T04:04:52.230Z,25.00
2023-03-06T04:07:18.533Z,25.27
2023-03-06T04:09:44.838Z,25.87
2023-03-06T04:12:11.170Z,26.67
2023-03-06T04:14:37.461Z,27.77
2023-03-06T04:17:03.740Z,29.03
2023-03-06T04:19:29.998Z,26.93
2023-03-06T04:21:56.316Z,27.87
2023-03-06T04:24:22.593Z,25.33
2023-03-06T04:26:48.852Z,27.33
2023-03-06T04:29:15.295Z,26.20
2023-03-06T04:31:41.758Z,24.10
2023-03-06T04:34:08.033Z,26.83
2023-03-06T04:36:34.838Z,27.40
2023-03-06T04:39:01.571Z,30.10
2023-03-06T04:41:27.913Z,26.67
2023-03-06T04:43:54.390Z,27.67
2023-03-06T04:46:20.724Z,27.80
2023-03-06T04:48:47.236Z,27.03
2023-03-06T04:51:13.682Z,26.63
2023-03-06T04:53:40.018Z,27.53
2023-03-06T04:56:06.749Z,28.40
2023-03-06T04:58:33.042Z,28.00
2023-03-06T05:00:59.373Z,29.37
2023-03-06T05:03:25.645Z,31.27
2023-03-06T05:05:51.986Z,30.73
2023-03-06T05:08:18.360Z,30.27
2023-03-06T05:10:45.146Z,28.77
2023-03-06T05:13:11.787Z,31.53
2023-03-06T05:15:41.945Z,31.73
2023-03-06T05:18:08.230Z,29.83
2023-03-06T05:20:34.613Z,31.07
2023-03-06T05:23:00.892Z,30.73
2023-03-06T05:25:27.154Z,34.30
2023-03-06T05:27:53.421Z,34.13
2023-03-06T05:30:21.184Z,31.83
2023-03-06T05:32:47.487Z,34.17
2023-03-06T05:35:21.407Z,32.97
2023-03-06T05:37:47.977Z,36.13
2023-03-06T05:40:15.066Z,35.47
2023-03-06T05:42:41.810Z,32.57
2023-03-06T05:45:08.391Z,34.23
2023-03-06T05:47:34.667Z,35.57
2023-03-06T05:50:00.961Z,31.77
2023-03-06T05:52:27.294Z,33.30
2023-03-06T05:54:54.050Z,38.57
2023-03-06T05:57:21.630Z,36.67
2023-03-06T05:59:48.580Z,31.73
2023-03-06T06:02:15.382Z,36.73
2023-03-06T06:04:42.453Z,36.50
2023-03-06T06:07:12.488Z,33.00
2023-03-06T06:09:38.855Z,36.07
2023-03-06T06:12:05.496Z,43.00
2023-03-06T06:14:33.708Z,39.20
2023-03-06T06:16:59.968Z,34.50
2023-03-06T06:19:28.675Z,36.63
2023-03-06T06:21:54.970Z,35.27
2023-03-06T06:24:23.402Z,33.53
2023-03-06T06:26:50.579Z,35.00
2023-03-06T06:29:16.832Z,37.97
2023-03-06T06:31:43.223Z,37.47
2023-03-06T06:34:10.510Z,35.30
2023-03-06T06:36:36.918Z,37.53
2023-03-06T06:39:03.551Z,41.07
2023-03-06T06:41:51.032Z,37.70
2023-03-06T06:44:17.783Z,42.37
2023-03-06T06:49:31.869Z,37.33
2023-03-06T06:51:58.570Z,38.33
2023-03-06T06:54:24.891Z,38.40
2023-03-06T06:56:51.318Z,39.87
2023-03-06T06:59:17.738Z,37.77
2023-03-06T07:01:44.235Z,38.97
2023-03-06T07:04:13.824Z,41.57
2023-03-06T07:06:40.505Z,43.00
2023-03-06T07:09:06.762Z,37.60
2023-03-06T07:11:33.066Z,38.20
2023-03-06T07:13:59.367Z,38.97
2023-03-06T07:16:25.664Z,35.27
2023-03-06T07:18:52.000Z,40.20
2023-03-06T07:21:18.252Z,39.10
2023-03-06T07:23:44.588Z,39.13
2023-03-06T07:26:11.204Z,41.97
2023-03-06T07:28:51.290Z,51.73
2023-03-06T07:31:18.985Z,38.80
2023-03-06T07:33:45.360Z,39.23
2023-03-06T07:36:12.932Z,38.47
2023-03-06T07:38:40.240Z,41.60
2023-03-06T07:41:09.526Z,35.80
2023-03-06T07:43:35.889Z,43.37
2023-03-06T07:46:02.224Z,42.00
2023-03-06T07:48:28.483Z,55.80
2023-03-06T07:50:57.799Z,48.20
2023-03-06T07:53:24.691Z,41.03
2023-03-06T07:55:50.939Z,45.33
2023-03-06T07:58:17.208Z,49.50
2023-03-06T08:00:43.472Z,42.07
2023-03-06T08:03:11.186Z,39.03
2023-03-06T08:05:37.601Z,47.13
2023-03-06T08:08:03.981Z,43.73
2023-03-06T08:10:30.228Z,46.30
2023-03-06T08:12:56.512Z,47.43
2023-03-06T08:15:22.776Z,40.63
2023-03-06T08:17:49.436Z,44.93
2023-03-06T08:20:17.475Z,42.93
2023-03-06T08:22:44.073Z,41.47
2023-03-06T08:25:11.480Z,38.60
2023-03-06T08:27:37.826Z,40.57
2023-03-06T08:30:04.389Z,41.53
2023-03-06T08:32:30.658Z,41.00
2023-03-06T08:34:56.963Z,43.07
2023-03-06T08:37:23.228Z,40.33
2023-03-06T08:39:49.549Z,39.50
2023-03-06T08:42:15.955Z,38.93
2023-03-06T08:44:42.704Z,39.33
2023-03-06T08:47:08.969Z,38.97
2023-03-06T08:49:35.946Z,38.60
2023-03-06T08:52:02.272Z,36.47
2023-03-06T08:54:28.518Z,37.87
2023-03-06T08:56:54.832Z,37.10
2023-03-06T08:59:21.147Z,38.23
2023-03-06T09:01:47.418Z,34.33
2023-03-06T09:04:13.922Z,35.43
2023-03-06T09:06:41.817Z,37.77
2023-03-06T09:09:08.389Z,32.67
2023-03-06T09:11:34.871Z,36.87
2023-03-06T09:14:01.255Z,34.33
2023-03-06T09:16:27.768Z,38.23
2023-03-06T09:18:54.273Z,36.67
2023-03-06T09:21:21.682Z,36.23
2023-03-06T09:23:48.158Z,33.23
2023-03-06T09:26:14.432Z,35.60
2023-03-06T09:28:40.941Z,36.30
2023-03-06T09:31:17.701Z,33.13
2023-03-06T09:33:44.289Z,36.57
2023-03-06T09:36:14.885Z,34.27
2023-03-06T09:38:41.217Z,30.77
2023-03-06T09:41:12.139Z,34.03
2023-03-06T09:43:39.953Z,35.77
2023-03-06T09:46:07.460Z,31.50
2023-03-06T09:48:43.679Z,33.47
2023-03-06T09:51:12.622Z,32.93
2023-03-06T09:53:50.838Z,33.07
2023-03-06T09:56:21.892Z,31.40
2023-03-06T09:58:57.160Z,36.93
2023-03-06T10:01:23.414Z,32.20
2023-03-06T10:11:03.683Z,28.17
2023-03-06T10:13:38.090Z,32.57
2023-03-06T10:16:22.099Z,28.90
2023-03-06T10:18:48.378Z,31.27
2023-03-06T10:21:24.178Z,29.03
2023-03-06T10:23:55.032Z,28.93
2023-03-06T10:26:24.481Z,28.13
2023-03-06T10:29:09.495Z,29.90
2023-03-06T10:31:37.309Z,28.37
2023-03-06T10:34:21.850Z,28.23
2023-03-06T10:36:48.330Z,29.17
2023-03-06T10:39:15.861Z,30.37
2023-03-06T10:41:42.972Z,28.60
2023-03-06T10:44:17.686Z,26.87
2023-03-06T10:46:45.744Z,29.10
2023-03-06T10:49:29.987Z,26.27
2023-03-06T10:52:00.665Z,25.10
2023-03-06T10:54:28.507Z,33.03
2023-03-06T10:56:54.779Z,43.20
2023-03-06T10:59:26.526Z,36.07
2023-03-06T11:01:54.501Z,59.90
2023-03-06T11:04:21.339Z,68.00
2023-03-06T11:06:47.775Z,30.43
2023-03-06T11:09:24.144Z,27.73
2023-03-06T11:11:51.112Z,29.07
2023-03-06T11:14:18.470Z,28.93
2023-03-06T11:16:53.029Z,26.80
2023-03-06T11:19:26.447Z,29.10
2023-03-06T11:22:03.225Z,27.90
2023-03-06T11:24:37.401Z,29.93
2023-03-06T11:27:15.054Z,27.00
2023-03-06T11:29:51.513Z,27.87
2023-03-06T11:32:23.129Z,27.07
2023-03-06T11:34:53.543Z,24.23
2023-03-06T11:37:19.762Z,26.97
2023-03-06T11:39:55.972Z,27.07
2023-03-06T11:42:26.450Z,26.30
2023-03-06T11:45:18.642Z,24.73
2023-03-06T11:48:03.626Z,26.97
2023-03-06T11:50:37.814Z,26.47
2023-03-06T11:53:06.132Z,27.57
2023-03-06T11:55:44.666Z,27.00
2023-03-06T11:58:29.408Z,25.30
2023-03-06T12:01:14.440Z,22.87
2023-03-06T12:03:40.929Z,26.57
2023-03-06T12:06:15.374Z,24.07
2023-03-06T12:08:47.514Z,24.47
2023-03-06T12:11:22.936Z,23.63
2023-03-06T12:13:55.506Z,26.90
2023-03-06T12:16:29.725Z,26.90
2023-03-06T12:19:04.966Z,24.57
2023-03-06T12:21:41.779Z,24.77
2023-03-06T12:24:19.426Z,61.77
2023-03-06T12:27:15.071Z,32.40
2023-03-06T12:29:50.261Z,96.53
2023-03-06T12:32:17.643Z,33.30
2023-03-06T12:34:51.169Z,24.80
2023-03-06T12:37:20.489Z,25.83
2023-03-06T12:40:13.653Z,24.60
2023-03-06T12:42:50.781Z,22.73
2023-03-06T12:45:20.206Z,25.50
2023-03-06T12:47:47.287Z,22.17
2023-03-06T12:50:23.456Z,25.97
2023-03-06T12:52:50.032Z,26.97
2023-03-06T12:55:18.545Z,25.17
2023-03-06T12:57:48.667Z,23.60
2023-03-06T13:00:34.047Z,23.00
2023-03-06T13:03:06.354Z,22.43
2023-03-06T13:05:38.504Z,24.37
2023-03-06T13:08:23.326Z,23.20
2023-03-06T13:11:05.576Z,24.20
2023-03-06T13:13:33.336Z,22.87
2023-03-06T13:16:12.082Z,26.10
2023-03-06T13:18:38.374Z,22.27
2023-03-06T13:21:05.739Z,22.30
2023-03-06T13:23:31.955Z,21.73
2023-03-06T13:26:21.581Z,24.23
2023-03-06T13:28:50.184Z,25.27
2023-03-06T13:31:36.912Z,25.03
2023-03-06T13:34:23.159Z,25.90
2023-03-06T13:36:49.454Z,24.07
2023-03-06T13:39:15.686Z,27.93
2023-03-06T13:41:55.370Z,23.00
2023-03-06T13:44:24.682Z,24.80
2023-03-06T13:46:58.920Z,24.60
2023-03-06T13:49:25.485Z,25.50
2023-03-06T13:51:51.743Z,21.90
2023-03-06T13:54:21.167Z,20.93
2023-03-06T13:56:50.189Z,21.93
2023-03-06T13:59:27.850Z,20.13
2023-03-06T14:01:54.129Z,20.37
2023-03-06T14:04:27.190Z,20.67
2023-03-06T14:07:13.782Z,20.90
2023-03-06T14:09:44.213Z,23.37
2023-03-06T14:12:13.195Z,21.07
2023-03-06T14:14:42.482Z,20.27
2023-03-06T14:17:18.222Z,21.17
2023-03-06T14:19:44.767Z,19.90
2023-03-06T14:22:18.706Z,20.10
2023-03-06T14:24:52.252Z,21.43
2023-03-06T14:27:19.171Z,22.83
2023-03-06T14:29:48.477Z,20.57
2023-03-06T14:32:16.619Z,20.33
2023-03-06T14:34:48.553Z,18.60
2023-03-06T14:37:22.758Z,20.07
2023-03-06T14:39:49.258Z,19.83
2023-03-06T14:42:19.811Z,18.97
2023-03-06T14:44:46.821Z,21.60
2023-03-06T14:47:22.210Z,19.67
2023-03-06T14:49:48.593Z,19.60
2023-03-06T14:52:19.050Z,21.97
2023-03-06T14:54:45.895Z,20.97
2023-03-06T14:57:13.652Z,21.33
2023-03-06T14:59:45.443Z,20.83
2023-03-06T15:02:16.292Z,23.90
2023-03-06T15:04:47.553Z,21.77
2023-03-06T15:07:15.926Z,20.60
2023-03-06T15:10:00.791Z,21.60
2023-03-06T15:12:27.151Z,21.03
2023-03-06T15:15:01.601Z,20.60
2023-03-06T15:17:28.052Z,21.43
2023-03-06T15:19:55.953Z,21.77
2023-03-06T15:22:25.144Z,23.63
2023-03-06T15:24:51.807Z,22.77
2023-03-06T15:27:19.854Z,23.93
2023-03-06T15:29:46.225Z,25.07
2023-03-06T15:32:31.112Z,20.57
2023-03-06T15:35:15.959Z,22.87
2023-03-06T15:37:42.333Z,21.30
2023-03-06T15:40:17.617Z,22.60
2023-03-06T15:42:44.196Z,20.13
2023-03-06T15:45:19.439Z,22.67
2023-03-06T15:47:46.599Z,24.40
2023-03-06T15:50:14.412Z,24.80
2023-03-06T15:52:40.666Z,23.67
2023-03-06T15:55:07.039Z,24.90
2023-03-06T15:57:33.410Z,23.10
2023-03-06T16:00:00.381Z,25.90
2023-03-06T16:02:26.872Z,25.13
2023-03-06T16:04:53.554Z,23.47
2023-03-06T16:07:20.563Z,24.13
2023-03-06T16:09:47.356Z,26.10
2023-03-06T16:12:15.691Z,26.50
2023-03-06T16:14:42.049Z,27.63
2023-03-06T16:17:09.739Z,24.33
2023-03-06T16:19:36.070Z,28.00
2023-03-06T16:22:02.340Z,27.50
2023-03-06T16:24:29.047Z,27.87
2023-03-06T16:26:55.562Z,28.30
2023-03-06T16:29:22.967Z,31.30
2023-03-06T16:31:49.940Z,29.80
2023-03-06T16:34:17.010Z,29.57
2023-03-06T16:36:43.413Z,32.23
2023-03-06T16:39:17.441Z,27.47
2023-03-06T16:41:45.824Z,29.40
2023-03-06T16:44:12.516Z,30.73
2023-03-06T16:46:40.130Z,30.47
2023-03-06T16:49:06.456Z,29.53
2023-03-06T16:51:33.526Z,33.40
2023-03-06T16:53:59.763Z,30.07
2023-03-06T16:56:26.029Z,33.93
2023-03-06T16:58:52.354Z,35.30
2023-03-06T17:01:19.325Z,34.17
2023-03-06T17:03:46.095Z,34.40
2023-03-06T17:06:13.586Z,31.70
2023-03-06T17:08:39.930Z,33.97
2023-03-06T17:11:06.611Z,38.17
2023-03-06T17:13:32.886Z,32.03
2023-03-06T17:16:01.596Z,28.23
2023-03-06T17:18:28.586Z,34.07
2023-03-06T17:20:55.051Z,29.83
2023-03-06T17:23:25.877Z,33.33
2023-03-06T17:26:12.494Z,31.07
2023-03-06T17:28:39.128Z,34.10
2023-03-06T17:31:19.256Z,33.87
2023-03-06T17:33:45.971Z,37.33
2023-03-06T17:36:12.583Z,35.00
2023-03-06T17:38:39.029Z,30.03
2023-03-06T17:41:06.385Z,34.03
2023-03-06T17:43:32.908Z,35.03
2023-03-06T17:46:06.217Z,38.13
2023-03-06T17:48:33.191Z,34.80
2023-03-06T17:50:59.672Z,34.43
2023-03-06T17:53:26.540Z,40.93
2023-03-06T17:55:52.811Z,37.17
2023-03-06T17:58:19.128Z,35.67
2023-03-06T18:00:45.858Z,41.63
2023-03-06T18:03:12.378Z,37.77
2023-03-06T18:05:38.993Z,38.73
2023-03-06T18:08:07.989Z,36.07
2023-03-06T18:10:34.426Z,41.20
2023-03-06T18:13:00.695Z,41.17
2023-03-06T18:15:27.021Z,37.57
2023-03-06T18:17:53.890Z,42.20
2023-03-06T18:20:20.158Z,43.73
2023-03-06T18:22:46.514Z,41.80
2023-03-06T18:25:12.836Z,40.33
2023-03-06T18:27:39.101Z,39.80
2023-03-06T18:30:05.754Z,40.27
2023-03-06T18:32:32.045Z,42.23
2023-03-06T18:34:58.563Z,41.47
2023-03-06T18:37:24.972Z,43.80
2023-03-06T18:39:51.672Z,41.43
2023-03-06T18:42:18.416Z,41.43
2023-03-06T18:44:47.747Z,43.37
2023-03-06T18:47:15.280Z,45.93
2023-03-06T18:49:44.108Z,45.80
2023-03-06T18:52:10.708Z,42.13
2023-03-06T18:54:36.977Z,48.43
2023-03-06T18:57:03.421Z,47.40
2023-03-06T18:59:29.941Z,47.67
2023-03-06T19:01:57.703Z,49.37
2023-03-06T19:04:25.132Z,45.27
2023-03-06T19:06:51.687Z,46.70
2023-03-06T19:09:17.936Z,47.20
2023-03-06T19:11:46.750Z,48.33
2023-03-06T19:14:13.816Z,47.30
2023-03-06T19:16:40.455Z,44.20
2023-03-06T19:19:06.815Z,47.43
2023-03-06T19:21:33.080Z,44.07
2023-03-06T19:23:59.397Z,49.10
2023-03-06T19:26:26.896Z,47.23
2023-03-06T19:28:53.487Z,48.93
2023-03-06T19:31:21.416Z,46.27
2023-03-06T19:33:48.628Z,44.53
2023-03-06T19:36:15.672Z,46.20
2023-03-06T19:38:42.113Z,45.40
2023-03-06T19:41:13.568Z,43.77
2023-03-06T19:43:40.734Z,46.07
2023-03-06T19:46:10.866Z,43.50
2023-03-06T19:48:37.262Z,44.13
2023-03-06T19:51:04.271Z,45.27
2023-03-06T19:53:31.178Z,45.47
2023-03-06T19:56:04.393Z,46.13
2023-03-06T19:58:30.699Z,48.30
2023-03-06T20:01:02.938Z,44.67
2023-03-06T20:03:29.242Z,44.93
2023-03-06T20:05:55.552Z,49.63
2023-03-06T20:08:21.818Z,42.93
2023-03-06T20:10:48.079Z,49.43
2023-03-06T20:13:14.335Z,47.83
2023-03-06T20:15:40.635Z,46.47
2023-03-06T20:18:07.007Z,47.37
2023-03-06T20:20:33.280Z,45.03
2023-03-06T20:23:04.279Z,46.20
2023-03-06T20:25:30.946Z,46.57
2023-03-06T20:27:57.341Z,47.93
2023-03-06T20:30:24.265Z,43.13
2023-03-06T20:32:51.495Z,49.60
2023-03-06T20:35:17.939Z,46.00
2023-03-06T20:37:44.184Z,45.00
2023-03-06T20:40:11.008Z,51.90
2023-03-06T20:42:37.311Z,49.20
2023-03-06T20:45:03.722Z,47.87
2023-03-06T20:47:30.096Z,46.93
2023-03-06T20:49:56.414Z,48.97
2023-03-06T20:52:22.654Z,52.10
2023-03-06T20:54:48.900Z,49.27
2023-03-06T20:57:15.286Z,45.03
2023-03-06T20:59:41.662Z,47.73
2023-03-06T21:02:09.611Z,46.40
2023-03-06T21:04:38.559Z,47.43
2023-03-06T21:07:04.837Z,43.73
2023-03-06T21:09:32.732Z,50.00
2023-03-06T21:11:59.289Z,45.87
2023-03-06T21:14:25.533Z,46.20
2023-03-06T21:16:51.963Z,48.93
2023-03-06T21:19:19.223Z,46.40
2023-03-06T21:21:45.466Z,49.37
2023-03-06T21:24:11.758Z,45.60
2023-03-06T21:26:38.022Z,44.30
2023-03-06T21:29:04.852Z,43.93
2023-03-06T21:31:31.793Z,48.87
2023-03-06T21:33:58.903Z,49.80
2023-03-06T21:36:25.840Z,45.53
2023-03-06T21:38:52.542Z,42.80
2023-03-06T21:41:18.894Z,49.77
2023-03-06T21:43:45.183Z,44.13
2023-03-06T21:46:11.919Z,46.03
2023-03-06T21:48:38.529Z,42.80
2023-03-06T21:51:05.763Z,42.23
2023-03-06T21:53:32.170Z,46.77
2023-03-06T21:56:01.975Z,47.30
2023-03-06T21:58:28.816Z,46.20
2023-03-06T22:00:55.142Z,42.03
2023-03-06T22:03:21.572Z,47.43
2023-03-06T22:05:47.866Z,49.07
2023-03-06T22:08:14.342Z,46.87
2023-03-06T22:10:41.044Z,45.90
2023-03-06T22:13:07.436Z,43.27
2023-03-06T22:15:33.692Z,44.70
2023-03-06T22:17:59.948Z,46.27
2023-03-06T22:20:26.291Z,48.73
2023-03-06T22:22:52.556Z,42.83
2023-03-06T22:25:18.844Z,43.43
2023-03-06T22:27:45.142Z,43.37
2023-03-06T22:30:11.692Z,44.53
2023-03-06T22:32:38.042Z,44.40
2023-03-06T22:35:05.287Z,40.00
2023-03-06T22:37:31.532Z,37.17
2023-03-06T22:39:57.787Z,39.33
2023-03-06T22:42:24.050Z,33.07
2023-03-06T22:44:50.284Z,35.27
2023-03-06T22:47:16.560Z,31.10
2023-03-06T22:49:42.819Z,32.87
2023-03-06T22:52:09.061Z,31.27
2023-03-06T22:54:35.428Z,32.20
2023-03-06T22:57:01.730Z,29.63
2023-03-06T22:59:28.043Z,27.97
2023-03-06T23:01:54.471Z,28.63
2023-03-06T23:04:20.801Z,25.77
2023-03-06T23:06:47.085Z,23.40
2023-03-06T23:09:15.828Z,22.33
2023-03-06T23:11:42.174Z,26.00
2023-03-06T23:14:11.932Z,25.43
2023-03-06T23:16:38.570Z,21.37
2023-03-06T23:19:05.272Z,23.97
2023-03-06T23:21:31.583Z,21.20
2023-03-06T23:23:57.845Z,18.83
2023-03-06T23:26:25.499Z,20.60
2023-03-06T23:28:52.623Z,18.07
2023-03-06T23:31:20.699Z,20.90
2023-03-06T23:33:47.939Z,15.80
2023-03-06T23:36:15.337Z,17.80
2023-03-06T23:38:41.616Z,16.73
2023-03-06T23:41:09.227Z,14.33
2023-03-06T23:43:36.315Z,14.43
2023-03-06T23:46:02.951Z,17.30
2023-03-06T23:48:29.645Z,19.83
2023-03-06T23:50:56.358Z,16.90
2023-03-06T23:53:23.077Z,20.43
2023-03-06T23:55:49.672Z,17.67
2023-03-06T23:58:16.692Z,18.03
